Accueil
METAR-TAF:

METAR-TAF

Aéroports :

Lleida-Alguaire

Lleida, Espagne

latitude: 41-43-40N, longitude: 000-32-09E, altitude: 350 m

Observation

Le bulletin a été fait il y a 19 minutes, à 01:30 UTC
Vent 1 kt de est
Température 5°C
Humidité 81%
Pression 1011 hPa
Visibilité 10 km ou plus

METAR: LEDA 120130Z AUTO 08001KT 9999 NCD 05/02 Q1011

Heure: 02:49 (01:49 UTC)


TAF: absent

Observations et prévisions météorologiques de plus de 4000 aéroports (messages METAR et TAF).

Les stations disponibles sont représentées par des disques jaunes et rouges sur la carte.

Passer la souris dessus pour voir le nom de la station.

Cliquer dessus pour voir les observations et prévisions météorologiques.

Pour changer de carte: cliquez sur les boutons verts avec une croix noire pour zoomer, sur le bouton vert avec un tiret pour effectuer un zoom arrière, ou sur les flèches vertes pour les cartes adjacentes.


METAR-TAF: